createdAt,value
2018-03-24T00:00:12.725Z,87.70
2018-03-24T00:02:39.225Z,87.70
2018-03-24T00:05:05.604Z,87.90
2018-03-24T00:07:31.990Z,88.20
2018-03-24T00:09:58.440Z,88.50
2018-03-24T00:12:24.831Z,88.90
2018-03-24T00:14:51.234Z,89.00
2018-03-24T00:17:17.617Z,88.30
2018-03-24T00:19:44.027Z,88.30
2018-03-24T00:22:13.228Z,87.80
2018-03-24T00:24:39.610Z,88.40
2018-03-24T00:27:05.990Z,87.80
2018-03-24T00:29:33.100Z,88.30
2018-03-24T00:31:59.493Z,88.30
2018-03-24T00:34:25.868Z,87.90
2018-03-24T00:36:52.302Z,88.20
2018-03-24T00:39:18.662Z,87.90
2018-03-24T00:41:45.939Z,88.80
2018-03-24T00:44:12.331Z,88.60
2018-03-24T00:46:38.880Z,88.80
2018-03-24T00:49:06.061Z,88.40
2018-03-24T00:51:32.446Z,88.40
2018-03-24T00:53:58.838Z,88.60
2018-03-24T00:56:25.234Z,89.10
2018-03-24T00:58:52.517Z,89.00
2018-03-24T01:01:18.922Z,89.00
2018-03-24T01:03:46.065Z,88.50
2018-03-24T01:06:13.193Z,88.10
2018-03-24T01:08:39.575Z,88.10
2018-03-24T01:11:05.968Z,88.20
2018-03-24T01:13:32.349Z,88.20
2018-03-24T01:15:58.773Z,88.70
2018-03-24T01:18:25.147Z,89.10
2018-03-24T01:20:51.532Z,88.80
2018-03-24T01:23:17.902Z,88.60
2018-03-24T01:25:46.724Z,88.60
2018-03-24T01:28:13.839Z,88.50
2018-03-24T01:30:40.224Z,88.60
2018-03-24T01:33:06.595Z,88.60
2018-03-24T01:35:32.988Z,88.90
2018-03-24T01:37:59.375Z,88.30
2018-03-24T01:40:25.756Z,88.00
2018-03-24T01:42:52.203Z,88.20
2018-03-24T01:45:18.609Z,88.30
2018-03-24T01:47:45.742Z,88.00
2018-03-24T01:50:12.858Z,88.40
2018-03-24T01:52:39.229Z,88.40
2018-03-24T01:55:06.366Z,88.90
2018-03-24T01:57:32.761Z,88.90
2018-03-24T01:59:59.165Z,89.10
2018-03-24T02:02:25.608Z,88.60
2018-03-24T02:04:51.999Z,89.20
2018-03-24T02:07:19.117Z,89.10
2018-03-24T02:09:45.523Z,89.00
2018-03-24T02:12:11.903Z,88.90
2018-03-24T02:14:38.282Z,88.80
2018-03-24T02:17:04.679Z,88.90
2018-03-24T02:19:31.096Z,88.70
2018-03-24T02:21:58.228Z,89.20
2018-03-24T02:24:24.612Z,88.40
2018-03-24T02:26:51.015Z,88.10
2018-03-24T02:29:17.401Z,88.60
2018-03-24T02:31:43.848Z,88.40
2018-03-24T02:34:10.218Z,88.30
2018-03-24T02:36:36.620Z,88.20
2018-03-24T02:39:03.084Z,88.20
2018-03-24T02:41:30.245Z,88.80
2018-03-24T02:43:57.381Z,89.00
2018-03-24T02:46:24.515Z,88.80
2018-03-24T02:49:04.456Z,88.70
2018-03-24T02:51:30.845Z,88.70
2018-03-24T02:53:57.238Z,89.10
2018-03-24T02:56:25.171Z,89.00
2018-03-24T02:58:51.557Z,89.00
2018-03-24T03:01:17.990Z,88.80
2018-03-24T03:03:45.128Z,89.30
2018-03-24T03:06:12.336Z,89.90
2018-03-24T03:08:38.718Z,89.70
2018-03-24T03:11:05.839Z,89.80
2018-03-24T03:13:32.237Z,89.70
2018-03-24T03:15:58.638Z,89.50
2018-03-24T03:18:25.745Z,89.00
2018-03-24T03:20:52.135Z,88.90
2018-03-24T03:23:18.612Z,88.60
2018-03-24T03:25:45.005Z,88.90
2018-03-24T03:28:11.483Z,88.60
2018-03-24T03:30:39.976Z,88.70
2018-03-24T03:33:07.175Z,88.20
2018-03-24T03:35:33.622Z,88.30
2018-03-24T03:38:00.009Z,88.60
2018-03-24T03:40:27.131Z,89.20
2018-03-24T03:42:53.562Z,89.00
2018-03-24T03:45:19.945Z,89.20
2018-03-24T03:47:46.327Z,89.60
2018-03-24T03:50:12.723Z,89.10
2018-03-24T03:52:39.103Z,88.90
2018-03-24T03:55:05.501Z,89.20
2018-03-24T03:57:32.008Z,89.80
2018-03-24T03:59:58.402Z,89.30
2018-03-24T04:02:25.550Z,90.00
2018-03-24T04:04:51.932Z,89.50
2018-03-24T04:07:18.322Z,89.20
2018-03-24T04:09:45.469Z,89.20
2018-03-24T04:12:11.918Z,89.20
2018-03-24T04:14:38.304Z,89.30
2018-03-24T04:17:04.696Z,89.10
2018-03-24T04:19:31.131Z,89.10
2018-03-24T04:21:58.296Z,89.80
2018-03-24T04:24:24.680Z,89.80
2018-03-24T04:26:51.794Z,89.50
2018-03-24T04:29:18.190Z,89.50
2018-03-24T04:31:44.617Z,89.30
2018-03-24T04:34:11.037Z,89.40
2018-03-24T04:36:38.181Z,90.00
2018-03-24T04:39:05.337Z,90.10
2018-03-24T04:41:32.472Z,90.00
2018-03-24T04:43:58.879Z,90.00
2018-03-24T04:46:25.257Z,89.70
2018-03-24T04:48:52.392Z,90.00
2018-03-24T04:51:18.826Z,89.90
2018-03-24T04:53:45.951Z,89.80
2018-03-24T04:56:12.415Z,89.80
2018-03-24T04:58:39.587Z,89.20
2018-03-24T05:01:06.089Z,89.20
2018-03-24T05:03:33.313Z,90.00
2018-03-24T05:05:59.702Z,89.90
2018-03-24T05:08:26.084Z,90.00
2018-03-24T05:10:52.663Z,90.10
2018-03-24T05:13:19.128Z,90.20
2018-03-24T05:15:45.519Z,90.30
2018-03-24T05:18:12.637Z,90.50
2018-03-24T05:20:39.051Z,90.50
2018-03-24T05:23:05.452Z,90.50
2018-03-24T05:25:31.869Z,90.40
2018-03-24T05:27:59.003Z,90.40
2018-03-24T05:30:25.447Z,90.30
2018-03-24T05:32:52.562Z,90.40
2018-03-24T05:35:18.954Z,90.40
2018-03-24T05:37:45.400Z,90.50
2018-03-24T05:40:11.805Z,90.70
2018-03-24T05:42:38.187Z,90.30
2018-03-24T05:45:04.604Z,90.40
2018-03-24T05:47:31.027Z,90.40
2018-03-24T05:49:57.414Z,90.30
2018-03-24T05:52:24.546Z,90.30
2018-03-24T05:54:50.992Z,90.20
2018-03-24T05:57:18.114Z,90.30
2018-03-24T05:59:44.591Z,90.30
2018-03-24T06:02:11.039Z,90.40
2018-03-24T06:04:37.444Z,90.30
2018-03-24T06:07:04.582Z,90.30
2018-03-24T06:09:30.981Z,90.30
2018-03-24T06:11:57.410Z,90.30
2018-03-24T06:14:23.812Z,90.10
2018-03-24T06:16:50.190Z,90.10
2018-03-24T06:19:16.594Z,90.20
2018-03-24T06:21:42.989Z,90.20
2018-03-24T06:24:10.195Z,90.20
2018-03-24T06:26:36.628Z,90.20
2018-03-24T06:29:03.061Z,90.10
2018-03-24T06:31:33.531Z,90.10
2018-03-24T06:34:00.727Z,90.10
2018-03-24T06:36:27.143Z,90.10
2018-03-24T06:38:53.529Z,90.20
2018-03-24T06:41:19.945Z,90.20
2018-03-24T06:43:46.339Z,90.00
2018-03-24T06:46:12.777Z,90.20
2018-03-24T06:48:39.173Z,90.10
2018-03-24T06:51:06.371Z,89.80
2018-03-24T06:53:32.766Z,89.80
2018-03-24T06:55:59.911Z,90.00
2018-03-24T06:58:27.028Z,89.60
2018-03-24T07:00:53.425Z,89.50
2018-03-24T07:03:19.841Z,89.30
2018-03-24T07:05:46.239Z,89.60
2018-03-24T07:08:12.639Z,89.40
2018-03-24T07:10:39.047Z,89.40
2018-03-24T07:13:05.437Z,89.20
2018-03-24T07:15:31.861Z,88.80
2018-03-24T07:17:58.251Z,88.80
2018-03-24T07:20:24.656Z,88.00
2018-03-24T07:22:51.789Z,88.50
2018-03-24T07:25:18.936Z,88.50
2018-03-24T07:27:45.311Z,88.40
2018-03-24T07:30:11.682Z,88.60
2018-03-24T07:32:38.104Z,87.50
2018-03-24T07:35:04.774Z,88.20
2018-03-24T07:37:31.934Z,89.20
2018-03-24T07:39:59.057Z,88.20
2018-03-24T07:42:25.439Z,88.10
2018-03-24T07:44:51.817Z,87.70
2018-03-24T07:47:18.727Z,86.50
2018-03-24T07:49:45.139Z,87.30
2018-03-24T07:52:11.679Z,86.90
2018-03-24T07:54:38.072Z,87.00
2018-03-24T07:57:04.452Z,86.10
2018-03-24T07:59:30.840Z,86.40
2018-03-24T08:01:57.998Z,86.30
2018-03-24T08:04:25.133Z,86.90
2018-03-24T08:06:51.507Z,86.80
2018-03-24T08:09:17.912Z,87.10
2018-03-24T08:11:45.053Z,87.70
2018-03-24T08:14:12.723Z,87.00
2018-03-24T08:16:39.876Z,86.20
2018-03-24T08:19:07.000Z,85.10
2018-03-24T08:21:34.869Z,85.00
2018-03-24T08:24:01.284Z,85.00
2018-03-24T08:26:27.728Z,84.50
2018-03-24T08:28:55.599Z,84.80
2018-03-24T08:31:21.995Z,84.80
2018-03-24T08:33:48.388Z,83.90
2018-03-24T08:36:15.529Z,82.70
2018-03-24T08:38:42.818Z,81.00
2018-03-24T08:41:09.203Z,80.90
2018-03-24T08:43:35.603Z,81.80
2018-03-24T08:46:02.019Z,84.00
2018-03-24T08:48:28.458Z,84.00
2018-03-24T08:50:54.841Z,84.50
2018-03-24T08:53:21.211Z,84.20
2018-03-24T08:55:47.649Z,82.80
2018-03-24T08:58:14.088Z,81.60
2018-03-24T09:00:40.462Z,81.80
2018-03-24T09:03:06.839Z,82.00
2018-03-24T09:05:33.247Z,82.00
2018-03-24T09:07:59.664Z,82.30
2018-03-24T09:10:26.047Z,81.80
2018-03-24T09:12:52.435Z,81.70
2018-03-24T09:15:20.303Z,80.40
2018-03-24T09:17:47.422Z,81.50
2018-03-24T09:20:13.811Z,81.30
2018-03-24T09:22:40.210Z,81.80
2018-03-24T09:25:07.407Z,81.80
2018-03-24T09:27:33.808Z,81.80
2018-03-24T09:30:00.948Z,79.70
2018-03-24T09:32:28.051Z,80.50
2018-03-24T09:34:54.594Z,80.50
2018-03-24T09:37:20.992Z,79.20
2018-03-24T09:39:47.496Z,79.40
2018-03-24T09:42:14.632Z,79.20
2018-03-24T09:44:41.751Z,76.70
2018-03-24T09:47:08.122Z,76.80
2018-03-24T09:49:35.273Z,77.30
2018-03-24T09:52:02.396Z,77.90
2018-03-24T09:54:28.818Z,77.90
2018-03-24T09:56:55.190Z,77.90
2018-03-24T09:59:23.108Z,78.10
2018-03-24T10:01:49.528Z,78.20
2018-03-24T10:04:15.911Z,75.90
2018-03-24T10:06:43.111Z,75.70
2018-03-24T10:09:09.571Z,75.70
2018-03-24T10:11:35.970Z,75.90
2018-03-24T10:14:03.334Z,76.50
2018-03-24T10:16:29.749Z,76.80
2018-03-24T10:18:56.136Z,76.60
2018-03-24T10:24:25.848Z,74.30
2018-03-24T10:26:52.256Z,74.10
2018-03-24T10:29:18.696Z,74.30
2018-03-24T10:31:45.073Z,72.70
2018-03-24T10:34:11.460Z,71.90
2018-03-24T10:36:37.850Z,73.50
2018-03-24T10:39:04.998Z,76.10
2018-03-24T10:41:31.445Z,75.50
2018-03-24T10:43:57.876Z,76.10
2018-03-24T10:46:25.012Z,75.30
2018-03-24T10:48:51.402Z,75.30
2018-03-24T10:51:17.834Z,76.10
2018-03-24T10:53:44.207Z,76.40
2018-03-24T10:56:10.587Z,75.70
2018-03-24T10:58:36.976Z,75.60
2018-03-24T11:01:09.471Z,75.40
2018-03-24T11:03:35.882Z,74.90
2018-03-24T11:06:03.043Z,74.60
2018-03-24T11:08:30.159Z,73.80
2018-03-24T11:10:56.559Z,73.80
2018-03-24T11:13:22.999Z,74.30
2018-03-24T11:15:49.507Z,73.80
2018-03-24T11:18:15.887Z,73.60
2018-03-24T11:20:42.329Z,74.00
2018-03-24T11:23:08.770Z,75.00
2018-03-24T11:25:35.188Z,74.80
2018-03-24T11:28:01.571Z,74.10
2018-03-24T11:30:27.951Z,73.50
2018-03-24T11:32:54.332Z,72.80
2018-03-24T11:35:20.792Z,72.70
2018-03-24T11:37:47.200Z,72.00
2018-03-24T11:40:13.586Z,72.60
2018-03-24T11:42:41.459Z,70.90
2018-03-24T11:45:09.433Z,70.10
2018-03-24T11:47:35.956Z,70.00
2018-03-24T11:50:03.834Z,66.70
2018-03-24T11:52:31.708Z,64.40
2018-03-24T11:54:58.111Z,64.30
2018-03-24T11:57:24.514Z,63.60
2018-03-24T11:59:50.904Z,61.70
2018-03-24T12:02:17.306Z,61.80
2018-03-24T12:04:43.696Z,62.60
2018-03-24T12:07:10.109Z,64.90
2018-03-24T12:09:37.235Z,67.30
2018-03-24T12:12:03.655Z,66.60
2018-03-24T12:14:30.047Z,66.00
2018-03-24T12:16:56.424Z,66.60
2018-03-24T12:19:22.877Z,66.50
2018-03-24T12:21:49.280Z,65.80
2018-03-24T12:24:15.674Z,65.20
2018-03-24T12:26:42.055Z,64.80
2018-03-24T12:29:08.443Z,65.60
2018-03-24T12:31:34.863Z,66.60
2018-03-24T12:34:01.993Z,67.80
2018-03-24T12:36:29.126Z,67.40
2018-03-24T12:38:55.520Z,67.40
2018-03-24T12:41:21.915Z,67.40
2018-03-24T12:43:49.023Z,67.60
2018-03-24T12:46:15.444Z,67.00
2018-03-24T12:48:41.820Z,64.50
2018-03-24T12:51:08.402Z,64.70
2018-03-24T12:53:34.795Z,66.20
2018-03-24T12:56:01.931Z,65.30
2018-03-24T12:58:28.339Z,65.40
2018-03-24T13:00:54.748Z,65.20
2018-03-24T13:03:21.139Z,64.80
2018-03-24T13:05:48.261Z,61.40
2018-03-24T13:08:15.525Z,60.80
2018-03-24T13:10:43.411Z,59.70
2018-03-24T13:13:10.521Z,59.80
2018-03-24T13:15:37.024Z,59.30
2018-03-24T13:18:03.476Z,60.60
2018-03-24T13:20:29.852Z,60.00
2018-03-24T13:22:56.235Z,62.00
2018-03-24T13:25:22.647Z,61.10
2018-03-24T13:27:49.055Z,59.50
2018-03-24T13:30:16.180Z,59.10
2018-03-24T13:32:42.619Z,59.10
2018-03-24T13:35:09.020Z,59.70
2018-03-24T13:37:35.419Z,59.80
2018-03-24T13:40:01.844Z,61.00
2018-03-24T13:42:28.988Z,59.90
2018-03-24T13:44:56.124Z,60.20
2018-03-24T13:47:22.525Z,60.20
2018-03-24T13:49:48.891Z,60.20
2018-03-24T13:52:15.271Z,60.10
2018-03-24T13:54:41.655Z,61.60
2018-03-24T13:57:08.938Z,61.00
2018-03-24T13:59:35.413Z,61.00
2018-03-24T14:02:03.337Z,60.60
2018-03-24T14:04:29.788Z,60.50
2018-03-24T14:06:56.210Z,60.20
2018-03-24T14:09:22.604Z,59.20
2018-03-24T14:11:49.787Z,60.90
2018-03-24T14:14:16.229Z,60.90
2018-03-24T14:16:42.608Z,60.40
2018-03-24T14:19:09.013Z,60.90
2018-03-24T14:21:35.425Z,61.10
2018-03-24T14:24:01.803Z,60.50
2018-03-24T14:26:28.191Z,60.10
2018-03-24T14:28:54.576Z,59.70
2018-03-24T14:31:27.036Z,58.40
2018-03-24T14:33:54.125Z,59.80
2018-03-24T14:36:21.444Z,59.60
2018-03-24T14:38:47.823Z,59.50
2018-03-24T14:41:14.232Z,59.60
2018-03-24T14:43:41.384Z,59.10
2018-03-24T14:46:08.580Z,59.60
2018-03-24T14:48:34.988Z,59.50
2018-03-24T14:51:01.425Z,59.30
2018-03-24T14:53:27.801Z,59.70
2018-03-24T14:55:54.182Z,59.90
2018-03-24T14:58:20.621Z,60.10
2018-03-24T15:00:47.837Z,59.80
2018-03-24T15:03:14.278Z,59.70
2018-03-24T15:05:41.429Z,59.50
2018-03-24T15:08:07.865Z,59.40
2018-03-24T15:10:34.990Z,59.60
2018-03-24T15:13:01.525Z,59.60
2018-03-24T15:15:29.396Z,59.20
2018-03-24T15:17:55.810Z,59.10
2018-03-24T15:20:22.184Z,59.40
2018-03-24T15:22:49.299Z,60.00
2018-03-24T15:25:15.685Z,60.00
2018-03-24T15:27:42.137Z,59.80
2018-03-24T15:30:21.889Z,60.50
2018-03-24T15:32:52.134Z,59.80
2018-03-24T15:35:32.407Z,58.90
2018-03-24T15:37:58.860Z,59.60
2018-03-24T15:40:26.092Z,60.30
2018-03-24T15:42:52.535Z,60.30
2018-03-24T15:45:19.708Z,60.30
2018-03-24T15:47:46.110Z,60.30
2018-03-24T15:50:12.504Z,59.70
2018-03-24T15:52:38.886Z,59.70
2018-03-24T15:55:06.015Z,59.90
2018-03-24T15:57:32.430Z,59.80
2018-03-24T15:59:58.820Z,59.60
2018-03-24T16:02:25.348Z,59.40
2018-03-24T16:04:51.829Z,59.70
2018-03-24T16:07:18.223Z,59.90
2018-03-24T16:09:44.620Z,59.90
2018-03-24T16:12:11.091Z,60.00
2018-03-24T16:14:37.489Z,59.30
2018-03-24T16:17:04.694Z,59.80
2018-03-24T16:19:31.113Z,60.20
2018-03-24T16:21:57.494Z,60.40
2018-03-24T16:24:23.880Z,60.00
2018-03-24T16:26:50.271Z,60.40
2018-03-24T16:29:16.697Z,60.20
2018-03-24T16:31:43.097Z,60.00
2018-03-24T16:34:09.492Z,59.50
2018-03-24T16:36:35.863Z,59.20
2018-03-24T16:39:02.315Z,58.70
2018-03-24T16:41:29.615Z,58.50
2018-03-24T16:43:55.987Z,58.80
2018-03-24T16:46:22.391Z,59.20
2018-03-24T16:48:48.778Z,57.50
2018-03-24T16:51:15.164Z,57.70
2018-03-24T16:53:41.664Z,57.00
2018-03-24T16:56:08.082Z,57.60
2018-03-24T16:58:34.485Z,57.10
2018-03-24T17:01:00.873Z,57.00
2018-03-24T17:03:27.271Z,57.30
2018-03-24T17:05:55.233Z,57.50
2018-03-24T17:08:22.535Z,57.70
2018-03-24T17:10:48.967Z,57.70
2018-03-24T17:13:15.342Z,58.00
2018-03-24T17:15:43.224Z,57.80
2018-03-24T17:18:09.621Z,57.80
2018-03-24T17:20:35.999Z,58.10
2018-03-24T17:23:02.389Z,57.90
2018-03-24T17:25:28.793Z,58.00
2018-03-24T17:27:55.239Z,58.30
2018-03-24T17:30:21.610Z,58.80
2018-03-24T17:32:48.002Z,59.00
2018-03-24T17:35:14.368Z,58.70
2018-03-24T17:37:40.755Z,58.50
2018-03-24T17:40:07.152Z,58.60
2018-03-24T17:42:33.552Z,59.40
2018-03-24T17:44:59.948Z,59.10
2018-03-24T17:47:26.327Z,59.30
2018-03-24T17:49:52.704Z,59.70
2018-03-24T17:52:19.824Z,60.50
2018-03-24T17:54:47.011Z,61.10
2018-03-24T17:57:13.447Z,61.10
2018-03-24T17:59:39.835Z,61.60
2018-03-24T18:02:06.226Z,62.00
2018-03-24T18:04:32.619Z,62.00
2018-03-24T18:06:59.778Z,62.80
2018-03-24T18:09:26.192Z,62.70
2018-03-24T18:11:52.640Z,63.10
2018-03-24T18:14:19.768Z,64.40
2018-03-24T18:16:46.974Z,64.60
2018-03-24T18:19:13.382Z,64.60
2018-03-24T18:21:39.863Z,64.90
2018-03-24T18:24:06.279Z,65.50
2018-03-24T18:26:32.666Z,65.50
2018-03-24T18:28:59.804Z,66.10
2018-03-24T18:31:26.931Z,66.20
2018-03-24T18:33:53.327Z,66.20
2018-03-24T18:36:19.733Z,66.20
2018-03-24T18:38:46.843Z,67.00
2018-03-24T18:41:14.719Z,67.30
2018-03-24T18:43:41.123Z,67.30
2018-03-24T18:46:07.506Z,68.00
2018-03-24T18:48:33.931Z,68.20
2018-03-24T18:51:01.083Z,68.50
2018-03-24T18:53:28.203Z,68.50
2018-03-24T18:55:54.620Z,68.50
2018-03-24T18:58:21.078Z,68.80
2018-03-24T19:00:48.227Z,69.00
2018-03-24T19:03:14.620Z,68.90
2018-03-24T19:05:41.024Z,69.10
2018-03-24T19:08:07.428Z,69.10
2018-03-24T19:10:34.586Z,69.90
2018-03-24T19:13:01.740Z,70.40
2018-03-24T19:15:29.028Z,70.50
2018-03-24T19:17:55.569Z,70.50
2018-03-24T19:20:21.980Z,70.30
2018-03-24T19:22:48.406Z,70.30
2018-03-24T19:25:15.553Z,70.20
2018-03-24T19:27:42.691Z,69.80
2018-03-24T19:30:09.839Z,69.80
2018-03-24T19:32:37.733Z,70.10
2018-03-24T19:35:04.152Z,70.10
2018-03-24T19:37:31.285Z,70.20
2018-03-24T19:39:58.428Z,70.30
2018-03-24T19:42:24.813Z,70.20
2018-03-24T19:44:51.218Z,69.90
2018-03-24T19:47:17.628Z,69.90
2018-03-24T19:49:44.755Z,70.60
2018-03-24T19:52:11.147Z,70.60
2018-03-24T19:54:37.550Z,71.00
2018-03-24T19:57:03.985Z,71.10
2018-03-24T19:59:31.108Z,72.50
2018-03-24T20:01:57.544Z,71.90
2018-03-24T20:04:23.999Z,72.40
2018-03-24T20:06:51.149Z,72.80
2018-03-24T20:09:18.294Z,72.90
2018-03-24T20:11:45.522Z,73.20
2018-03-24T20:14:11.947Z,73.20
2018-03-24T20:16:38.441Z,73.30
2018-03-24T20:19:04.955Z,73.40
2018-03-24T20:21:31.330Z,73.70
2018-03-24T20:23:57.719Z,74.00
2018-03-24T20:26:24.852Z,73.40
2018-03-24T20:28:51.250Z,73.40
2018-03-24T20:31:17.682Z,73.60
2018-03-24T20:33:44.104Z,73.50
2018-03-24T20:36:10.524Z,74.60
2018-03-24T20:38:36.978Z,74.70
2018-03-24T20:41:03.388Z,74.80
2018-03-24T20:43:29.760Z,75.20
2018-03-24T20:45:56.163Z,75.90
2018-03-24T20:48:22.560Z,76.20
2018-03-24T20:50:50.007Z,77.40
2018-03-24T20:53:17.152Z,77.90
2018-03-24T20:55:44.302Z,77.90
2018-03-24T20:58:10.721Z,77.90
2018-03-24T21:00:37.127Z,78.00
2018-03-24T21:03:03.517Z,78.20
2018-03-24T21:05:30.706Z,79.00
2018-03-24T21:07:57.129Z,79.00
2018-03-24T21:10:23.519Z,79.20
2018-03-24T21:12:50.693Z,79.70
2018-03-24T21:15:17.102Z,79.70
2018-03-24T21:17:44.260Z,81.00
2018-03-24T21:20:11.436Z,80.60
2018-03-24T21:22:37.873Z,80.70
2018-03-24T21:25:04.288Z,81.40
2018-03-24T21:27:31.476Z,81.80
2018-03-24T21:29:57.889Z,81.70
2018-03-24T21:32:24.290Z,81.50
2018-03-24T21:34:51.438Z,82.30
2018-03-24T21:37:18.569Z,82.70
2018-03-24T21:39:44.971Z,82.60
2018-03-24T21:42:11.417Z,82.80
2018-03-24T21:44:37.803Z,82.90
2018-03-24T21:47:04.927Z,84.00
2018-03-24T21:49:31.329Z,84.00
2018-03-24T21:51:57.741Z,84.50
2018-03-24T21:54:24.136Z,84.80
2018-03-24T21:56:51.271Z,85.10
2018-03-24T21:59:17.639Z,85.10
2018-03-24T22:01:44.053Z,84.70
2018-03-24T22:04:10.468Z,84.90
2018-03-24T22:06:37.872Z,85.30
2018-03-24T22:09:04.292Z,85.90
2018-03-24T22:11:30.658Z,86.30
2018-03-24T22:13:57.044Z,86.60
2018-03-24T22:16:24.175Z,87.80
2018-03-24T22:18:51.317Z,88.20
2018-03-24T22:21:17.770Z,88.20
2018-03-24T22:23:44.160Z,88.40
2018-03-24T22:26:11.296Z,89.60
2018-03-24T22:28:37.695Z,88.90
2018-03-24T22:31:04.095Z,89.10
2018-03-24T22:33:30.594Z,89.20
2018-03-24T22:35:57.002Z,89.50
2018-03-24T22:38:23.408Z,89.60
2018-03-24T22:40:50.548Z,90.00
2018-03-24T22:43:17.683Z,90.10
2018-03-24T22:45:44.077Z,90.00
2018-03-24T22:48:10.455Z,90.20
2018-03-24T22:50:37.604Z,90.40
2018-03-24T22:53:04.763Z,90.30
2018-03-24T22:55:31.957Z,90.50
2018-03-24T22:57:58.370Z,90.50
2018-03-24T23:00:24.797Z,90.50
2018-03-24T23:02:51.915Z,90.50
2018-03-24T23:05:18.299Z,90.50
2018-03-24T23:07:44.735Z,90.60
2018-03-24T23:10:11.143Z,90.80
2018-03-24T23:12:37.532Z,90.70
2018-03-24T23:15:03.988Z,90.80
2018-03-24T23:17:31.106Z,91.00
2018-03-24T23:19:57.474Z,91.00
2018-03-24T23:22:24.655Z,91.10
2018-03-24T23:24:51.048Z,91.10
2018-03-24T23:27:18.166Z,91.20
2018-03-24T23:29:44.562Z,91.20
2018-03-24T23:32:11.004Z,91.30
2018-03-24T23:34:37.386Z,91.40
2018-03-24T23:37:03.786Z,91.60
2018-03-24T23:39:30.975Z,91.90
2018-03-24T23:41:57.343Z,91.80
2018-03-24T23:44:23.732Z,91.90
2018-03-24T23:46:50.131Z,92.10
2018-03-24T23:49:16.525Z,92.30
2018-03-24T23:51:42.941Z,92.30
2018-03-24T23:54:10.074Z,92.60
2018-03-24T23:56:36.486Z,92.60
2018-03-24T23:59:02.925Z,92.70
